createdAt,value
2023-01-29T00:00:30.598Z,101167.66
2023-01-29T00:03:42.116Z,101180.00
2023-01-29T00:06:52.547Z,101173.56
2023-01-29T00:09:56.975Z,101177.97
2023-01-29T00:13:10.075Z,101190.16
2023-01-29T00:16:16.081Z,101190.56
2023-01-29T00:19:22.840Z,101189.13
2023-01-29T00:22:34.095Z,101189.09
2023-01-29T00:25:41.434Z,101193.25
2023-01-29T00:28:49.218Z,101188.22
2023-01-29T00:31:54.143Z,101197.56
2023-01-29T00:35:01.666Z,101198.88
2023-01-29T00:38:06.766Z,101204.66
2023-01-29T00:41:34.522Z,101204.53
2023-01-29T00:44:58.932Z,101207.34
2023-01-29T00:48:08.535Z,101208.38
2023-01-29T00:51:13.110Z,101210.69
2023-01-29T00:54:19.593Z,101208.63
2023-01-29T00:57:27.097Z,101208.38
2023-01-29T01:00:32.494Z,101207.91
2023-01-29T01:03:43.960Z,101206.75
2023-01-29T01:06:47.545Z,101209.97
2023-01-29T01:10:08.645Z,101206.69
2023-01-29T01:13:12.723Z,101204.53
2023-01-29T01:16:21.054Z,101215.63
2023-01-29T01:19:23.364Z,101217.41
2023-01-29T01:22:27.715Z,101217.16
2023-01-29T01:25:32.943Z,101223.50
2023-01-29T01:28:35.759Z,101217.63
2023-01-29T01:31:38.152Z,101215.81
2023-01-29T01:34:42.856Z,101218.78
2023-01-29T01:37:48.139Z,101213.47
2023-01-29T01:41:06.396Z,101220.75
2023-01-29T01:44:47.195Z,101224.47
2023-01-29T01:48:03.946Z,101225.13
2023-01-29T01:51:09.259Z,101223.75
2023-01-29T01:54:20.183Z,101221.56
2023-01-29T01:57:27.925Z,101219.16
2023-01-29T02:00:33.688Z,101221.94
2023-01-29T02:04:04.695Z,101220.88
2023-01-29T02:07:32.018Z,101220.47
2023-01-29T02:10:45.961Z,101229.75
2023-01-29T02:13:59.983Z,101244.22
2023-01-29T02:17:06.160Z,101234.31
2023-01-29T02:20:27.815Z,101239.53
2023-01-29T02:23:58.196Z,101251.88
2023-01-29T02:27:17.922Z,101248.38
2023-01-29T02:30:28.807Z,101247.97
2023-01-29T02:33:48.232Z,101247.16
2023-01-29T02:37:06.832Z,101238.88
2023-01-29T02:40:22.823Z,101254.94
2023-01-29T02:43:47.956Z,101260.03
2023-01-29T02:46:58.561Z,101261.13
2023-01-29T02:50:19.043Z,101261.56
2023-01-29T02:53:48.854Z,101267.25
2023-01-29T02:57:04.138Z,101267.72
2023-01-29T03:00:30.209Z,101271.63
2023-01-29T03:03:44.650Z,101267.72
2023-01-29T03:06:54.703Z,101266.81
2023-01-29T03:09:59.915Z,101268.31
2023-01-29T03:13:47.217Z,101274.72
2023-01-29T03:16:56.333Z,101273.16
2023-01-29T03:20:03.738Z,101280.88
2023-01-29T03:23:14.471Z,101271.63
2023-01-29T03:26:42.306Z,101278.66
2023-01-29T03:30:09.442Z,101281.09
2023-01-29T03:33:45.302Z,101286.31
2023-01-29T03:37:10.719Z,101277.06
2023-01-29T03:40:17.773Z,101284.09
2023-01-29T03:43:56.072Z,101293.97
2023-01-29T03:47:16.061Z,101295.00
2023-01-29T03:50:59.003Z,101287.31
2023-01-29T03:54:26.430Z,101288.31
2023-01-29T03:57:41.603Z,101291.16
2023-01-29T04:00:56.601Z,101285.41
2023-01-29T04:04:15.233Z,101278.81
2023-01-29T04:07:30.144Z,101277.63
2023-01-29T04:10:40.186Z,101284.06
2023-01-29T04:13:46.837Z,101283.66
2023-01-29T04:17:02.229Z,101296.03
2023-01-29T04:20:23.297Z,101287.06
2023-01-29T04:23:27.704Z,101281.28
2023-01-29T04:27:13.799Z,101288.00
2023-01-29T04:30:36.276Z,101285.66
2023-01-29T04:33:48.274Z,101292.47
2023-01-29T04:37:04.631Z,101289.25
2023-01-29T04:40:19.731Z,101286.09
2023-01-29T04:43:48.142Z,101285.53
2023-01-29T04:47:03.461Z,101290.09
2023-01-29T04:50:34.567Z,101293.50
2023-01-29T04:54:05.555Z,101290.72
2023-01-29T04:57:38.012Z,101285.72
2023-01-29T05:00:47.420Z,101289.53
2023-01-29T05:03:58.027Z,101292.13
2023-01-29T05:07:11.367Z,101284.16
2023-01-29T05:10:32.541Z,101288.59
2023-01-29T05:13:39.626Z,101288.03
2023-01-29T05:16:53.261Z,101282.59
2023-01-29T05:20:10.037Z,101281.78
2023-01-29T05:23:26.305Z,101279.41
2023-01-29T05:26:47.363Z,101282.47
2023-01-29T05:30:02.819Z,101282.22
2023-01-29T05:33:17.964Z,101282.03
2023-01-29T05:36:32.768Z,101289.00
2023-01-29T05:39:43.660Z,101283.56
2023-01-29T05:43:04.555Z,101289.59
2023-01-29T05:46:12.624Z,101286.00
2023-01-29T05:49:16.522Z,101281.38
2023-01-29T05:52:21.682Z,101283.34
2023-01-29T05:55:39.839Z,101278.94
2023-01-29T05:58:47.128Z,101289.16
2023-01-29T06:01:54.374Z,101300.31
2023-01-29T06:04:56.626Z,101297.91
2023-01-29T06:08:01.619Z,101299.72
2023-01-29T06:11:13.348Z,101293.31
2023-01-29T06:14:15.619Z,101297.91
2023-01-29T06:17:27.000Z,101303.53
2023-01-29T06:20:38.809Z,101314.69
2023-01-29T06:23:46.100Z,101317.44
2023-01-29T06:26:49.281Z,101330.22
2023-01-29T06:29:54.223Z,101327.66
2023-01-29T06:33:01.567Z,101331.88
2023-01-29T06:36:15.682Z,101336.09
2023-01-29T06:39:20.701Z,101336.44
2023-01-29T06:42:28.114Z,101344.97
2023-01-29T06:45:33.443Z,101350.03
2023-01-29T06:48:42.427Z,101347.63
2023-01-29T06:51:44.687Z,101348.03
2023-01-29T06:54:47.646Z,101338.19
2023-01-29T06:57:49.930Z,101348.38
2023-01-29T07:00:57.070Z,101345.66
2023-01-29T07:04:01.301Z,101349.09
2023-01-29T07:07:04.046Z,101347.47
2023-01-29T07:10:12.313Z,101352.56
2023-01-29T07:13:18.803Z,101341.97
2023-01-29T07:16:21.322Z,101343.81
2023-01-29T07:19:32.280Z,101334.78
2023-01-29T07:22:38.733Z,101341.84
2023-01-29T07:25:41.526Z,101345.22
2023-01-29T07:28:46.873Z,101338.63
2023-01-29T07:31:54.362Z,101333.06
2023-01-29T07:35:01.654Z,101352.63
2023-01-29T07:38:06.003Z,101333.47
2023-01-29T07:41:10.362Z,101328.16
2023-01-29T07:44:12.589Z,101325.97
2023-01-29T07:47:17.040Z,101322.41
2023-01-29T07:50:28.984Z,101334.34
2023-01-29T07:53:35.757Z,101333.38
2023-01-29T07:56:39.420Z,101323.69
2023-01-29T07:59:54.858Z,101327.56
2023-01-29T08:03:18.741Z,101334.16
2023-01-29T08:06:27.280Z,101331.81
2023-01-29T08:09:29.510Z,101328.28
2023-01-29T08:12:31.920Z,101329.09
2023-01-29T08:15:46.248Z,101326.50
2023-01-29T08:18:51.526Z,101343.03
2023-01-29T08:21:59.240Z,101341.34
2023-01-29T08:25:08.301Z,101349.06
2023-01-29T08:28:21.624Z,101342.09
2023-01-29T08:31:36.349Z,101340.31
2023-01-29T08:34:38.642Z,101346.31
2023-01-29T08:37:43.003Z,101347.13
2023-01-29T08:40:47.496Z,101355.50
2023-01-29T08:43:54.835Z,101363.56
2023-01-29T08:47:19.658Z,101376.09
2023-01-29T08:50:24.341Z,101377.16
2023-01-29T08:53:37.557Z,101375.59
2023-01-29T08:56:43.705Z,101380.97
2023-01-29T08:59:48.572Z,101389.31
2023-01-29T09:02:59.781Z,101390.16
2023-01-29T09:06:04.237Z,101387.41
2023-01-29T09:09:10.064Z,101392.00
2023-01-29T09:12:13.488Z,101385.16
2023-01-29T09:15:22.248Z,101391.16
2023-01-29T09:18:26.992Z,101385.31
2023-01-29T09:21:29.192Z,101383.56
2023-01-29T09:24:32.686Z,101387.16
2023-01-29T09:27:46.314Z,101388.19
2023-01-29T09:30:52.990Z,101396.78
2023-01-29T09:33:58.238Z,101403.13
2023-01-29T09:37:00.515Z,101392.97
2023-01-29T09:40:07.212Z,101393.94
2023-01-29T09:43:18.349Z,101403.34
2023-01-29T09:46:38.439Z,101408.19
2023-01-29T09:49:46.051Z,101406.28
2023-01-29T09:53:04.302Z,101401.72
2023-01-29T09:56:18.789Z,101397.13
2023-01-29T09:59:32.119Z,101396.16
2023-01-29T10:02:51.691Z,101401.59
2023-01-29T10:06:23.334Z,101407.00
2023-01-29T10:09:39.822Z,101406.81
2023-01-29T10:13:11.142Z,101404.44
2023-01-29T10:16:54.315Z,101406.81
2023-01-29T10:20:05.844Z,101413.25
2023-01-29T10:23:45.859Z,101397.25
2023-01-29T10:27:03.036Z,101388.09
2023-01-29T10:30:23.369Z,101399.66
2023-01-29T10:33:59.464Z,101391.31
2023-01-29T10:37:32.551Z,101397.56
2023-01-29T10:40:46.547Z,101396.25
2023-01-29T10:44:08.465Z,101400.41
2023-01-29T10:47:41.174Z,101394.53
2023-01-29T10:50:52.116Z,101391.19
2023-01-29T10:54:24.102Z,101389.03
2023-01-29T10:57:39.204Z,101373.25
2023-01-29T11:00:46.733Z,101362.41
2023-01-29T11:04:06.978Z,101359.06
2023-01-29T11:07:12.336Z,101363.06
2023-01-29T11:10:23.747Z,101363.25
2023-01-29T11:13:51.154Z,101360.22
2023-01-29T11:16:59.976Z,101358.25
2023-01-29T11:20:04.695Z,101338.88
2023-01-29T11:23:19.703Z,101335.91
2023-01-29T11:26:25.128Z,101335.91
2023-01-29T11:29:30.313Z,101336.66
2023-01-29T11:32:37.099Z,101327.28
2023-01-29T11:35:41.764Z,101327.06
2023-01-29T11:38:44.237Z,101311.91
2023-01-29T11:42:08.278Z,101307.13
2023-01-29T11:45:35.308Z,101299.16
2023-01-29T11:48:43.685Z,101286.00
2023-01-29T11:51:55.966Z,101279.38
2023-01-29T11:55:29.685Z,101281.19
2023-01-29T11:58:37.476Z,101290.00
2023-01-29T12:01:42.835Z,101285.19
2023-01-29T12:04:49.891Z,101296.59
2023-01-29T12:08:00.609Z,101293.56
2023-01-29T12:11:14.965Z,101280.38
2023-01-29T12:14:34.422Z,101284.75
2023-01-29T12:17:43.643Z,101280.97
2023-01-29T12:21:27.071Z,101284.97
2023-01-29T12:24:52.520Z,101284.94
2023-01-29T12:28:09.610Z,101280.16
2023-01-29T12:31:49.754Z,101277.94
2023-01-29T12:34:57.816Z,101282.53
2023-01-29T12:38:14.596Z,101282.13
2023-01-29T12:41:40.366Z,101276.53
2023-01-29T12:44:59.641Z,101276.16
2023-01-29T12:48:17.938Z,101272.38
2023-01-29T12:51:28.094Z,101270.69
2023-01-29T12:54:42.500Z,101262.53
2023-01-29T12:58:12.516Z,101268.34
2023-01-29T13:01:23.946Z,101262.97
2023-01-29T13:04:57.735Z,101256.97
2023-01-29T13:08:29.008Z,101239.94
2023-01-29T13:11:55.325Z,101235.88
2023-01-29T13:15:28.898Z,101231.13
2023-01-29T13:18:49.344Z,101218.72
2023-01-29T13:21:55.486Z,101218.66
2023-01-29T13:25:04.665Z,101210.28
2023-01-29T13:28:21.937Z,101203.09
2023-01-29T13:31:34.842Z,101198.25
2023-01-29T13:34:45.725Z,101219.31
2023-01-29T13:37:57.195Z,101214.53
2023-01-29T13:41:05.175Z,101225.88
2023-01-29T13:44:20.443Z,101228.84
2023-01-29T13:47:36.502Z,101232.94
2023-01-29T13:50:43.344Z,101217.97
2023-01-29T13:54:20.904Z,101216.78
2023-01-29T13:57:46.754Z,101208.81
2023-01-29T14:00:49.612Z,101214.34
2023-01-29T14:04:07.837Z,101216.50
2023-01-29T14:07:40.944Z,101227.56
2023-01-29T14:10:47.995Z,101232.53
2023-01-29T14:13:52.481Z,101237.78
2023-01-29T14:17:06.628Z,101242.53
2023-01-29T14:20:21.113Z,101233.13
2023-01-29T14:23:44.580Z,101238.78
2023-01-29T14:26:54.731Z,101234.41
2023-01-29T14:30:07.186Z,101239.75
2023-01-29T14:33:27.429Z,101241.56
2023-01-29T14:36:51.773Z,101248.09
2023-01-29T14:40:27.658Z,101238.69
2023-01-29T14:43:35.534Z,101239.03
2023-01-29T14:46:49.599Z,101234.84
2023-01-29T14:50:02.145Z,101236.28
2023-01-29T14:53:19.151Z,101235.78
2023-01-29T14:56:54.890Z,101239.88
2023-01-29T15:00:11.072Z,101243.16
2023-01-29T15:03:23.175Z,101241.50
2023-01-29T15:06:46.627Z,101235.94
2023-01-29T15:10:22.398Z,101237.28
2023-01-29T15:13:42.563Z,101234.81
2023-01-29T15:16:53.463Z,101221.13
2023-01-29T15:19:58.310Z,101212.59
2023-01-29T15:23:26.019Z,101218.53
2023-01-29T15:26:32.209Z,101209.78
2023-01-29T15:29:35.587Z,101214.16
2023-01-29T15:32:40.373Z,101216.06
2023-01-29T15:35:51.587Z,101211.59
2023-01-29T15:39:34.130Z,101221.94
2023-01-29T15:42:57.262Z,101217.75
2023-01-29T15:46:06.871Z,101227.13
2023-01-29T15:49:21.628Z,101227.50
2023-01-29T15:52:33.249Z,101220.66
2023-01-29T15:55:36.286Z,101227.50
2023-01-29T15:58:42.678Z,101229.97
2023-01-29T16:01:56.230Z,101228.47
2023-01-29T16:05:03.195Z,101234.63
2023-01-29T16:08:16.832Z,101231.34
2023-01-29T16:11:30.890Z,101227.78
2023-01-29T16:14:42.014Z,101227.59
2023-01-29T16:17:49.241Z,101238.41
2023-01-29T16:21:05.425Z,101244.72
2023-01-29T16:24:23.366Z,101233.84
2023-01-29T16:27:26.412Z,101243.97
2023-01-29T16:30:30.969Z,101251.03
2023-01-29T16:33:39.054Z,101257.25
2023-01-29T16:36:46.720Z,101256.56
2023-01-29T16:39:52.378Z,101266.09
2023-01-29T16:43:42.124Z,101267.34
2023-01-29T16:47:14.227Z,101260.03
2023-01-29T16:50:53.953Z,101271.88
2023-01-29T16:54:18.269Z,101267.44
2023-01-29T16:57:34.470Z,101265.91
2023-01-29T17:00:53.086Z,101262.63
2023-01-29T17:04:15.140Z,101268.34
2023-01-29T17:07:21.380Z,101265.56
2023-01-29T17:10:30.456Z,101267.06
2023-01-29T17:13:43.043Z,101273.50
2023-01-29T17:17:02.151Z,101263.22
2023-01-29T17:20:16.474Z,101265.72
2023-01-29T17:23:19.451Z,101251.66
2023-01-29T17:26:23.119Z,101249.59
2023-01-29T17:29:30.979Z,101249.94
2023-01-29T17:32:47.858Z,101239.69
2023-01-29T17:35:53.673Z,101236.94
2023-01-29T17:38:57.449Z,101234.75
2023-01-29T17:42:04.627Z,101236.09
2023-01-29T17:45:21.361Z,101226.19
2023-01-29T17:48:28.997Z,101232.97
2023-01-29T17:51:37.197Z,101226.91
2023-01-29T17:54:47.885Z,101218.78
2023-01-29T17:57:53.120Z,101219.13
2023-01-29T18:01:05.176Z,101213.25
2023-01-29T18:04:12.650Z,101219.06
2023-01-29T18:07:16.798Z,101221.44
2023-01-29T18:10:26.735Z,101214.22
2023-01-29T18:13:32.368Z,101205.38
2023-01-29T18:16:37.651Z,101212.16
2023-01-29T18:19:40.239Z,101203.13
2023-01-29T18:22:42.635Z,101207.38
2023-01-29T18:25:50.278Z,101203.72
2023-01-29T18:28:55.402Z,101200.09
2023-01-29T18:32:05.090Z,101199.81
2023-01-29T18:35:19.123Z,101195.28
2023-01-29T18:38:27.463Z,101196.44
2023-01-29T18:41:38.964Z,101190.00
2023-01-29T18:44:47.444Z,101194.41
2023-01-29T18:47:52.555Z,101196.91
2023-01-29T18:50:58.092Z,101200.50
2023-01-29T18:54:11.351Z,101195.88
2023-01-29T18:58:26.332Z,101199.53
2023-01-29T19:00:48.922Z,101206.63
2023-01-29T19:03:54.214Z,101209.22
2023-01-29T19:06:58.930Z,101202.69
2023-01-29T19:10:07.944Z,101192.88
2023-01-29T19:13:16.867Z,101196.53
2023-01-29T19:16:27.223Z,101196.38
2023-01-29T19:19:34.537Z,101196.03
2023-01-29T19:22:44.372Z,101195.41
2023-01-29T19:25:49.064Z,101199.41
2023-01-29T19:29:02.216Z,101207.34
2023-01-29T19:32:08.861Z,101191.66
2023-01-29T19:35:14.520Z,101195.69
2023-01-29T19:38:22.661Z,101193.84
2023-01-29T19:41:31.846Z,101181.28
2023-01-29T19:44:36.859Z,101178.47
2023-01-29T19:47:50.481Z,101176.38
2023-01-29T19:51:10.363Z,101181.88
2023-01-29T19:54:12.751Z,101191.09
2023-01-29T19:57:25.042Z,101195.16
2023-01-29T20:00:36.198Z,101197.16
2023-01-29T20:03:42.957Z,101186.03
2023-01-29T20:06:49.516Z,101193.25
2023-01-29T20:09:54.199Z,101185.81
2023-01-29T20:12:57.662Z,101186.78
2023-01-29T20:16:05.668Z,101186.66
2023-01-29T20:19:14.127Z,101182.81
2023-01-29T20:22:20.743Z,101170.59
2023-01-29T20:25:22.985Z,101171.22
2023-01-29T20:28:32.200Z,101155.94
2023-01-29T20:31:40.925Z,101156.03
2023-01-29T20:34:57.976Z,101158.97
2023-01-29T20:38:19.501Z,101160.28
2023-01-29T20:41:25.764Z,101148.53
2023-01-29T20:44:30.997Z,101161.94
2023-01-29T20:47:34.477Z,101167.41
2023-01-29T20:50:39.959Z,101163.28
2023-01-29T20:53:50.515Z,101167.63
2023-01-29T20:56:55.301Z,101169.06
2023-01-29T21:00:02.016Z,101167.28
2023-01-29T21:03:04.436Z,101172.72
2023-01-29T21:06:11.624Z,101171.09
2023-01-29T21:09:17.339Z,101186.56
2023-01-29T21:12:26.604Z,101178.38
2023-01-29T21:15:33.989Z,101184.84
2023-01-29T21:18:39.554Z,101192.06
2023-01-29T21:21:45.288Z,101189.84
2023-01-29T21:24:50.573Z,101188.84
2023-01-29T21:27:59.699Z,101190.00
2023-01-29T21:31:16.453Z,101187.28
2023-01-29T21:34:21.524Z,101181.66
2023-01-29T21:37:23.801Z,101191.31
2023-01-29T21:40:42.983Z,101189.34
2023-01-29T21:43:47.584Z,101187.63
2023-01-29T21:46:49.880Z,101189.53
2023-01-29T21:50:02.467Z,101199.88
2023-01-29T21:53:20.865Z,101188.31
2023-01-29T21:56:24.914Z,101182.31
2023-01-29T21:59:35.883Z,101173.91
2023-01-29T22:02:53.101Z,101172.94
2023-01-29T22:05:59.352Z,101167.97
2023-01-29T22:09:01.671Z,101164.13
2023-01-29T22:12:17.666Z,101161.22
2023-01-29T22:15:25.380Z,101156.66
2023-01-29T22:18:30.195Z,101156.97
2023-01-29T22:21:37.088Z,101148.88
2023-01-29T22:24:44.710Z,101140.63
2023-01-29T22:27:59.449Z,101141.56
2023-01-29T22:31:05.747Z,101131.34
2023-01-29T22:34:15.344Z,101123.28
2023-01-29T22:37:23.419Z,101111.63
2023-01-29T22:40:28.614Z,101121.00
2023-01-29T22:43:37.743Z,101111.59
2023-01-29T22:46:41.482Z,101112.63
2023-01-29T22:49:49.237Z,101109.69
2023-01-29T22:52:54.283Z,101111.31
2023-01-29T22:55:59.591Z,101105.66
2023-01-29T22:59:04.369Z,101105.84
2023-01-29T23:02:12.364Z,101094.44
2023-01-29T23:05:24.838Z,101098.41
2023-01-29T23:08:27.754Z,101107.00
2023-01-29T23:11:33.836Z,101099.16
2023-01-29T23:14:43.688Z,101099.59
2023-01-29T23:17:56.390Z,101087.56
2023-01-29T23:24:19.825Z,101092.31
2023-01-29T23:27:29.311Z,101087.22
2023-01-29T23:30:34.767Z,101084.63
2023-01-29T23:33:43.375Z,101071.31
2023-01-29T23:36:57.467Z,101072.44
2023-01-29T23:40:08.679Z,101064.31
2023-01-29T23:43:20.314Z,101066.41
2023-01-29T23:46:24.396Z,101063.41
2023-01-29T23:49:40.459Z,101058.91
2023-01-29T23:52:52.081Z,101062.16
2023-01-29T23:56:05.095Z,101051.13
2023-01-29T23:59:21.254Z,101048.03
